Portada
METAR-TAF:

METAR-TAF

Aeropuertos :

Estambul Atatürk, Turquía

Aeropuerto Internacional Atatürk

latitud: 40-58N, longitud: 028-49E, altitud: 48 m

Observación

El informe se hizo hace 42 minutos, a las 19:50 UTC
Viento 5 kt del noreste, variando entre norte-noreste y este-sureste
Temperatura 19°C
Humedad 30%
Presión 1017 hPa
Visibilidad 10 km o más
sin nubes por debajo de 1500 m y sin presencia de cumulonimbus.

METAR: LTBA 271950Z 05005KT 020V110 CAVOK 19/01 Q1017 NOSIG RMK RWY17L 02004KT RWY05 04006KT RWY23 04005KT

Hora: 23:32 (20:32 UTC)

Pronóstico

El informe se hizo hace 3 horas y 52 minutos, a las 16:40 UTC
Pronóstico válido del 27 a las 18 UTC al 28 a las 24 UTC
Viento 2 kt con dirección variable
Visibilidad 10 km o más
sin nubes por debajo de 1500 m y sin presencia de cumulonimbus.

TAF: LTBA 271640Z 2718/2824 VRB02KT CAVOK

Observaciones y pronósticos meteorológicos de más de 4000 aeropuertos (mensajes METAR y TAF).

Los puntos amarillos y rojos representan las estaciones disponibles.

Ponga el ratón en el punto deseado para ver el nombre de la estación.

Haga clic para ver las observaciones y los pronósticos meteorológicos.

Para cambiar el mapa : haga clic en los botones verdes con una cruz de color negro para hacer un zoom, en el botón verde con un guión para alejar o en las flechas verdes para mapas adyacentes.


METAR-TAF: